AUA25K LOWW-EDDH
Flight info
| Callsign | AUA25K |
|---|---|
| Flight time | 1h 6m |
| Altitude | 34000 |
| Route | LANUX2C/29 LANUX DCT VLM DCT HDO DCT OSKAN M748 BOLBO DCT ESIKA DCT SOGMA M748 RARUP RARUP3P |
| Aircraft | A320/M-SDE3FGHIRWY/LB1 |
Departure
| Time | 2026-04-22 18:42 |
|---|---|
| Airport | Vienna International Airport (LOWW) |
Arrival
| Time | 2026-04-22 19:48 |
|---|---|
| Airport | Hamburg Helmut Schmidt Airport (EDDH) |
| Time | Latitude | Longitude | Altitude | Speed | Heading |
|---|---|---|---|---|---|
| 2026-04-22 18:11 | 48.11808 | 16.57041 | 617 ft | 0 kts | 205° |
| 2026-04-22 18:31 | 48.11812 | 16.57044 | 608 ft | 4 kts | 205° |
| 2026-04-22 18:31 | 48.11837 | 16.57061 | 605 ft | 4 kts | 204° |
| 2026-04-22 18:32 | 48.11861 | 16.57078 | 620 ft | 4 kts | 205° |
| 2026-04-22 18:32 | 48.11881 | 16.57092 | 610 ft | 4 kts | 199° |
| 2026-04-22 18:32 | 48.11905 | 16.57096 | 612 ft | 4 kts | 156° |
| 2026-04-22 18:32 | 48.11923 | 16.57073 | 619 ft | 3 kts | 116° |
| 2026-04-22 18:33 | 48.11928 | 16.57056 | 614 ft | 0 kts | 116° |
| 2026-04-22 18:36 | 48.11928 | 16.57057 | 614 ft | 1 kts | 116° |
| 2026-04-22 18:36 | 48.11904 | 16.57128 | 610 ft | 8 kts | 117° |
| 2026-04-22 18:36 | 48.11871 | 16.57192 | 610 ft | 7 kts | 136° |
| 2026-04-22 18:37 | 48.11837 | 16.57265 | 622 ft | 9 kts | 118° |
| 2026-04-22 18:37 | 48.11807 | 16.57336 | 619 ft | 8 kts | 135° |
| 2026-04-22 18:37 | 48.11768 | 16.57362 | 615 ft | 12 kts | 164° |
| 2026-04-22 18:37 | 48.11633 | 16.57420 | 615 ft | 15 kts | 164° |
| 2026-04-22 18:38 | 48.11569 | 16.57446 | 613 ft | 14 kts | 165° |
| 2026-04-22 18:38 | 48.11482 | 16.57453 | 610 ft | 12 kts | 196° |
| 2026-04-22 18:38 | 48.11406 | 16.57399 | 610 ft | 13 kts | 206° |
| 2026-04-22 18:39 | 48.11329 | 16.57341 | 619 ft | 5 kts | 207° |
| 2026-04-22 18:39 | 48.11307 | 16.57325 | 615 ft | 0 kts | 206° |
| 2026-04-22 18:39 | 48.11274 | 16.57300 | 615 ft | 14 kts | 206° |
| 2026-04-22 18:40 | 48.11174 | 16.57229 | 616 ft | 15 kts | 205° |
| 2026-04-22 18:40 | 48.11084 | 16.57164 | 618 ft | 13 kts | 209° |
| 2026-04-22 18:40 | 48.11071 | 16.57061 | 617 ft | 3 kts | 296° |
| 2026-04-22 18:41 | 48.11095 | 16.56988 | 617 ft | 32 kts | 296° |
| 2026-04-22 18:41 | 48.11308 | 16.56343 | 614 ft | 101 kts | 296° |
| 2026-04-22 18:41 | 48.11701 | 16.55142 | 615 ft | 154 kts | 295° |
| 2026-04-22 18:42 | 48.12170 | 16.53611 | 1084 ft | 161 kts | 296° |
| 2026-04-22 18:42 | 48.12380 | 16.51961 | 1817 ft | 167 kts | 270° |
| 2026-04-22 18:42 | 48.12190 | 16.50149 | 2206 ft | 187 kts | 265° |
| 2026-04-22 18:42 | 48.11908 | 16.48122 | 2475 ft | 210 kts | 265° |
| 2026-04-22 18:43 | 48.11857 | 16.45850 | 2747 ft | 230 kts | 280° |
| 2026-04-22 18:43 | 48.12034 | 16.43358 | 3196 ft | 249 kts | 282° |
| 2026-04-22 18:43 | 48.12270 | 16.40792 | 3961 ft | 255 kts | 283° |
| 2026-04-22 18:43 | 48.12535 | 16.38151 | 4863 ft | 258 kts | 283° |
| 2026-04-22 18:44 | 48.12811 | 16.35477 | 5738 ft | 261 kts | 283° |
| 2026-04-22 18:44 | 48.13091 | 16.32770 | 6593 ft | 265 kts | 283° |
| 2026-04-22 18:44 | 48.13378 | 16.30030 | 7406 ft | 268 kts | 283° |
| 2026-04-22 18:44 | 48.13671 | 16.27251 | 8217 ft | 272 kts | 283° |
| 2026-04-22 18:45 | 48.14012 | 16.24450 | 9019 ft | 274 kts | 290° |
| 2026-04-22 18:45 | 48.14785 | 16.21856 | 9788 ft | 273 kts | 307° |
| 2026-04-22 18:45 | 48.16030 | 16.19715 | 10468 ft | 277 kts | 322° |
| 2026-04-22 18:45 | 48.17712 | 16.18130 | 10685 ft | 297 kts | 336° |
| 2026-04-22 18:46 | 48.19644 | 16.16733 | 10865 ft | 320 kts | 336° |
| 2026-04-22 18:46 | 48.21693 | 16.15241 | 11299 ft | 332 kts | 336° |
| 2026-04-22 18:46 | 48.23785 | 16.13702 | 11972 ft | 337 kts | 336° |
| 2026-04-22 18:46 | 48.25901 | 16.12136 | 12662 ft | 341 kts | 336° |
| 2026-04-22 18:47 | 48.28038 | 16.10549 | 13362 ft | 345 kts | 336° |
| 2026-04-22 18:47 | 48.30201 | 16.08938 | 14005 ft | 349 kts | 336° |
| 2026-04-22 18:47 | 48.32380 | 16.07311 | 14179 ft | 350 kts | 336° |
| 2026-04-22 18:47 | 48.34560 | 16.05681 | 14231 ft | 350 kts | 336° |
| 2026-04-22 18:48 | 48.36739 | 16.04052 | 14236 ft | 350 kts | 336° |
| 2026-04-22 18:48 | 48.38918 | 16.02427 | 14240 ft | 350 kts | 337° |
| 2026-04-22 18:48 | 48.41097 | 16.00805 | 14239 ft | 350 kts | 337° |
| 2026-04-22 18:48 | 48.43284 | 15.99176 | 14336 ft | 353 kts | 337° |
| 2026-04-22 18:49 | 48.45484 | 15.97531 | 15047 ft | 353 kts | 337° |
| 2026-04-22 18:49 | 48.47690 | 15.95879 | 15709 ft | 355 kts | 337° |
| 2026-04-22 18:49 | 48.49912 | 15.94218 | 16332 ft | 358 kts | 337° |
| 2026-04-22 18:49 | 48.52153 | 15.92544 | 16954 ft | 361 kts | 338° |
| 2026-04-22 18:50 | 48.54416 | 15.90852 | 17547 ft | 365 kts | 338° |
| 2026-04-22 18:50 | 48.56698 | 15.89139 | 18137 ft | 368 kts | 338° |
| 2026-04-22 18:50 | 48.58982 | 15.87342 | 18703 ft | 372 kts | 336° |
| 2026-04-22 18:50 | 48.61229 | 15.85457 | 19193 ft | 377 kts | 335° |
| 2026-04-22 18:51 | 48.63515 | 15.83473 | 19704 ft | 381 kts | 334° |
| 2026-04-22 18:51 | 48.65815 | 15.81457 | 20190 ft | 385 kts | 335° |
| 2026-04-22 18:51 | 48.68146 | 15.79418 | 20667 ft | 389 kts | 335° |
| 2026-04-22 18:51 | 48.70502 | 15.77369 | 21147 ft | 392 kts | 335° |
| 2026-04-22 18:52 | 48.72883 | 15.75309 | 21611 ft | 396 kts | 335° |
| 2026-04-22 18:52 | 48.75290 | 15.73235 | 22069 ft | 400 kts | 336° |
| 2026-04-22 18:52 | 48.77721 | 15.71152 | 22521 ft | 403 kts | 336° |
| 2026-04-22 18:52 | 48.80174 | 15.69048 | 22963 ft | 407 kts | 336° |
| 2026-04-22 18:53 | 48.82652 | 15.66918 | 23323 ft | 412 kts | 336° |
| 2026-04-22 18:53 | 48.85161 | 15.64760 | 23712 ft | 416 kts | 336° |
| 2026-04-22 18:53 | 48.87683 | 15.62582 | 24055 ft | 419 kts | 336° |
| 2026-04-22 18:53 | 48.90281 | 15.60613 | 24380 ft | 418 kts | 342° |
| 2026-04-22 18:54 | 48.92954 | 15.58833 | 24683 ft | 421 kts | 342° |
| 2026-04-22 18:54 | 48.95646 | 15.57045 | 25008 ft | 423 kts | 342° |
| 2026-04-22 18:54 | 48.98355 | 15.55255 | 25303 ft | 426 kts | 342° |
| 2026-04-22 18:54 | 49.01088 | 15.53452 | 25581 ft | 430 kts | 343° |
| 2026-04-22 18:55 | 49.03843 | 15.51633 | 25879 ft | 433 kts | 343° |
| 2026-04-22 18:55 | 49.06612 | 15.49796 | 26173 ft | 436 kts | 343° |
| 2026-04-22 18:55 | 49.09404 | 15.47938 | 26456 ft | 439 kts | 343° |
| 2026-04-22 18:55 | 49.12033 | 15.46183 | 26729 ft | 441 kts | 343° |
| 2026-04-22 18:56 | 49.14854 | 15.44296 | 27010 ft | 444 kts | 343° |
| 2026-04-22 18:56 | 49.17691 | 15.42394 | 27289 ft | 446 kts | 343° |
| 2026-04-22 18:56 | 49.20537 | 15.40485 | 27573 ft | 448 kts | 343° |
| 2026-04-22 18:56 | 49.23404 | 15.38563 | 27833 ft | 451 kts | 343° |
| 2026-04-22 18:57 | 49.26283 | 15.36627 | 28089 ft | 453 kts | 343° |
| 2026-04-22 18:57 | 49.29140 | 15.34708 | 28338 ft | 455 kts | 343° |
| 2026-04-22 18:57 | 49.32052 | 15.32755 | 28575 ft | 458 kts | 343° |
| 2026-04-22 18:57 | 49.34974 | 15.30791 | 28816 ft | 460 kts | 343° |
| 2026-04-22 18:58 | 49.37912 | 15.28812 | 28986 ft | 463 kts | 343° |
| 2026-04-22 18:58 | 49.40867 | 15.26815 | 29167 ft | 465 kts | 343° |
| 2026-04-22 18:58 | 49.43838 | 15.24804 | 29399 ft | 466 kts | 343° |
| 2026-04-22 18:58 | 49.46802 | 15.22789 | 29712 ft | 466 kts | 343° |
| 2026-04-22 18:59 | 49.49766 | 15.20771 | 30014 ft | 466 kts | 343° |
| 2026-04-22 18:59 | 49.52732 | 15.18752 | 30305 ft | 466 kts | 343° |
| 2026-04-22 18:59 | 49.55696 | 15.16731 | 30571 ft | 466 kts | 343° |
| 2026-04-22 18:59 | 49.58657 | 15.14711 | 30859 ft | 465 kts | 343° |
| 2026-04-22 19:00 | 49.61613 | 15.12694 | 31159 ft | 464 kts | 343° |
| 2026-04-22 19:00 | 49.64555 | 15.10688 | 31452 ft | 462 kts | 343° |
| 2026-04-22 19:00 | 49.67495 | 15.08682 | 31739 ft | 461 kts | 343° |
| 2026-04-22 19:00 | 49.70418 | 15.06690 | 32053 ft | 459 kts | 343° |
| 2026-04-22 19:01 | 49.73361 | 15.04825 | 32334 ft | 455 kts | 346° |
| 2026-04-22 19:01 | 49.76321 | 15.03124 | 32628 ft | 453 kts | 347° |
| 2026-04-22 19:01 | 49.79297 | 15.01521 | 32920 ft | 452 kts | 348° |
| 2026-04-22 19:01 | 49.82266 | 14.99963 | 33214 ft | 450 kts | 348° |
| 2026-04-22 19:02 | 49.85234 | 14.98397 | 33505 ft | 450 kts | 348° |
| 2026-04-22 19:02 | 49.88183 | 14.96804 | 33800 ft | 449 kts | 347° |
| 2026-04-22 19:02 | 49.91123 | 14.95177 | 34072 ft | 448 kts | 347° |
| 2026-04-22 19:02 | 49.94059 | 14.93529 | 34240 ft | 450 kts | 347° |
| 2026-04-22 19:03 | 49.99912 | 14.90220 | 34272 ft | 451 kts | 347° |
| 2026-04-22 19:03 | 50.05816 | 14.86887 | 34272 ft | 451 kts | 347° |
| 2026-04-22 19:04 | 50.11720 | 14.83547 | 34270 ft | 451 kts | 347° |
| 2026-04-22 19:04 | 50.17621 | 14.80205 | 34267 ft | 452 kts | 347° |
| 2026-04-22 19:05 | 50.23561 | 14.76843 | 34271 ft | 453 kts | 347° |
| 2026-04-22 19:05 | 50.29462 | 14.73496 | 34272 ft | 453 kts | 347° |
| 2026-04-22 19:06 | 50.35389 | 14.70115 | 34276 ft | 453 kts | 347° |
| 2026-04-22 19:07 | 50.44273 | 14.65027 | 34257 ft | 454 kts | 347° |
| 2026-04-22 19:07 | 50.50206 | 14.61616 | 34264 ft | 454 kts | 347° |
| 2026-04-22 19:08 | 50.56145 | 14.58210 | 34263 ft | 455 kts | 347° |
| 2026-04-22 19:08 | 50.62085 | 14.54789 | 34255 ft | 455 kts | 347° |
| 2026-04-22 19:09 | 50.68033 | 14.51342 | 34245 ft | 456 kts | 347° |
| 2026-04-22 19:09 | 50.72983 | 14.48462 | 34254 ft | 457 kts | 347° |
| 2026-04-22 19:10 | 50.79918 | 14.44427 | 34273 ft | 457 kts | 347° |
| 2026-04-22 19:10 | 50.85889 | 14.40948 | 34276 ft | 458 kts | 347° |
| 2026-04-22 19:11 | 50.91818 | 14.37167 | 34274 ft | 466 kts | 339° |
| 2026-04-22 19:11 | 50.97129 | 14.30985 | 34246 ft | 481 kts | 326° |
| 2026-04-22 19:12 | 51.02184 | 14.24007 | 34246 ft | 482 kts | 326° |
| 2026-04-22 19:12 | 51.07258 | 14.17022 | 34253 ft | 483 kts | 326° |
| 2026-04-22 19:13 | 51.12337 | 14.10019 | 34266 ft | 483 kts | 326° |
| 2026-04-22 19:13 | 51.17413 | 14.02991 | 34264 ft | 484 kts | 326° |
| 2026-04-22 19:14 | 51.22505 | 13.95898 | 34249 ft | 484 kts | 326° |
| 2026-04-22 19:14 | 51.27559 | 13.88833 | 34253 ft | 485 kts | 326° |
| 2026-04-22 19:15 | 51.31779 | 13.82919 | 34259 ft | 486 kts | 326° |
| 2026-04-22 19:15 | 51.37722 | 13.74571 | 34271 ft | 487 kts | 326° |
| 2026-04-22 19:16 | 51.42804 | 13.67412 | 34277 ft | 487 kts | 326° |
| 2026-04-22 19:16 | 51.47889 | 13.60229 | 34280 ft | 487 kts | 326° |
| 2026-04-22 19:17 | 51.52939 | 13.53075 | 34246 ft | 488 kts | 326° |
| 2026-04-22 19:17 | 51.58034 | 13.45852 | 34255 ft | 489 kts | 326° |
| 2026-04-22 19:18 | 51.63134 | 13.38590 | 34256 ft | 490 kts | 326° |
| 2026-04-22 19:18 | 51.68231 | 13.31283 | 34255 ft | 491 kts | 326° |
| 2026-04-22 19:19 | 51.73328 | 13.23970 | 34266 ft | 491 kts | 326° |
| 2026-04-22 19:19 | 51.78426 | 13.16631 | 34242 ft | 491 kts | 325° |
| 2026-04-22 19:20 | 51.83594 | 13.09429 | 34257 ft | 490 kts | 327° |
| 2026-04-22 19:20 | 51.88848 | 13.02396 | 34268 ft | 490 kts | 328° |
| 2026-04-22 19:21 | 51.94104 | 12.95361 | 34277 ft | 491 kts | 327° |
| 2026-04-22 19:21 | 51.99341 | 12.88223 | 34274 ft | 492 kts | 327° |
| 2026-04-22 19:22 | 52.04525 | 12.81098 | 34281 ft | 492 kts | 327° |
| 2026-04-22 19:22 | 52.09751 | 12.73902 | 34255 ft | 492 kts | 327° |
| 2026-04-22 19:23 | 52.14976 | 12.66700 | 34276 ft | 493 kts | 327° |
| 2026-04-22 19:23 | 52.20206 | 12.59467 | 34279 ft | 493 kts | 327° |
| 2026-04-22 19:24 | 52.25433 | 12.52218 | 34286 ft | 493 kts | 327° |
| 2026-04-22 19:24 | 52.30654 | 12.44943 | 34290 ft | 493 kts | 326° |
| 2026-04-22 19:25 | 52.35876 | 12.37654 | 34259 ft | 494 kts | 326° |
| 2026-04-22 19:25 | 52.41100 | 12.30347 | 34274 ft | 494 kts | 327° |
| 2026-04-22 19:26 | 52.46323 | 12.23027 | 34281 ft | 494 kts | 326° |
| 2026-04-22 19:26 | 52.51605 | 12.15827 | 33722 ft | 493 kts | 328° |
| 2026-04-22 19:26 | 52.53379 | 12.13493 | 33358 ft | 492 kts | 328° |
| 2026-04-22 19:27 | 52.56055 | 12.10012 | 32822 ft | 491 kts | 328° |
| 2026-04-22 19:27 | 52.58736 | 12.06532 | 32298 ft | 490 kts | 327° |
| 2026-04-22 19:27 | 52.61410 | 12.03034 | 31784 ft | 491 kts | 327° |
| 2026-04-22 19:27 | 52.64936 | 11.98377 | 31092 ft | 491 kts | 326° |
| 2026-04-22 19:28 | 52.67596 | 11.94828 | 30603 ft | 493 kts | 326° |
| 2026-04-22 19:28 | 52.69395 | 11.92413 | 30257 ft | 493 kts | 325° |
| 2026-04-22 19:28 | 52.72055 | 11.88840 | 29681 ft | 493 kts | 325° |
| 2026-04-22 19:28 | 52.74707 | 11.85275 | 29111 ft | 492 kts | 325° |
| 2026-04-22 19:29 | 52.77356 | 11.81713 | 28566 ft | 490 kts | 324° |
| 2026-04-22 19:29 | 52.79947 | 11.78226 | 28031 ft | 484 kts | 324° |
| 2026-04-22 19:29 | 52.82547 | 11.74730 | 27499 ft | 478 kts | 324° |
| 2026-04-22 19:29 | 52.85110 | 11.71282 | 26978 ft | 473 kts | 324° |
| 2026-04-22 19:30 | 52.86826 | 11.68973 | 26631 ft | 469 kts | 324° |
| 2026-04-22 19:30 | 52.90151 | 11.64489 | 25948 ft | 462 kts | 323° |
| 2026-04-22 19:30 | 52.92629 | 11.61137 | 25454 ft | 457 kts | 323° |
| 2026-04-22 19:30 | 52.95075 | 11.57825 | 24974 ft | 451 kts | 323° |
| 2026-04-22 19:31 | 52.97489 | 11.54552 | 24510 ft | 446 kts | 323° |
| 2026-04-22 19:31 | 52.99875 | 11.51311 | 24293 ft | 442 kts | 322° |
| 2026-04-22 19:31 | 53.02252 | 11.48074 | 24213 ft | 442 kts | 322° |
| 2026-04-22 19:31 | 53.04635 | 11.44821 | 23150 ft | 447 kts | 322° |
| 2026-04-22 19:32 | 53.07039 | 11.41542 | 22403 ft | 443 kts | 322° |
| 2026-04-22 19:32 | 53.09403 | 11.38316 | 21795 ft | 436 kts | 322° |
| 2026-04-22 19:32 | 53.11731 | 11.35128 | 21194 ft | 430 kts | 322° |
| 2026-04-22 19:32 | 53.14021 | 11.31979 | 20624 ft | 424 kts | 322° |
| 2026-04-22 19:33 | 53.16282 | 11.28869 | 20057 ft | 419 kts | 322° |
| 2026-04-22 19:33 | 53.18511 | 11.25800 | 19545 ft | 413 kts | 322° |
| 2026-04-22 19:33 | 53.20713 | 11.22767 | 19028 ft | 408 kts | 322° |
| 2026-04-22 19:33 | 53.22888 | 11.19769 | 18522 ft | 403 kts | 322° |
| 2026-04-22 19:34 | 53.25037 | 11.16803 | 17994 ft | 398 kts | 322° |
| 2026-04-22 19:34 | 53.27154 | 11.13873 | 17503 ft | 393 kts | 322° |
| 2026-04-22 19:34 | 53.29216 | 11.11019 | 17018 ft | 388 kts | 322° |
| 2026-04-22 19:34 | 53.31284 | 11.08160 | 16513 ft | 384 kts | 322° |
| 2026-04-22 19:35 | 53.33334 | 11.05323 | 16015 ft | 380 kts | 322° |
| 2026-04-22 19:35 | 53.35360 | 11.02512 | 15499 ft | 377 kts | 322° |
| 2026-04-22 19:35 | 53.37370 | 10.99717 | 14981 ft | 374 kts | 322° |
| 2026-04-22 19:35 | 53.39367 | 10.96933 | 14449 ft | 372 kts | 322° |
| 2026-04-22 19:36 | 53.41350 | 10.94166 | 13893 ft | 370 kts | 322° |
| 2026-04-22 19:36 | 53.43318 | 10.91417 | 13326 ft | 367 kts | 322° |
| 2026-04-22 19:36 | 53.45266 | 10.88688 | 12771 ft | 363 kts | 322° |
| 2026-04-22 19:36 | 53.47191 | 10.85988 | 12223 ft | 359 kts | 322° |
| 2026-04-22 19:37 | 53.49099 | 10.83309 | 11669 ft | 356 kts | 322° |
| 2026-04-22 19:37 | 53.50984 | 10.80660 | 11272 ft | 348 kts | 322° |
| 2026-04-22 19:37 | 53.52789 | 10.78117 | 11151 ft | 328 kts | 322° |
| 2026-04-22 19:37 | 53.54464 | 10.75751 | 11023 ft | 301 kts | 322° |
| 2026-04-22 19:38 | 53.56014 | 10.73559 | 10739 ft | 284 kts | 322° |
| 2026-04-22 19:38 | 53.57519 | 10.71435 | 10445 ft | 280 kts | 322° |
| 2026-04-22 19:38 | 53.59006 | 10.69342 | 10116 ft | 277 kts | 322° |
| 2026-04-22 19:38 | 53.60481 | 10.67266 | 9743 ft | 275 kts | 322° |
| 2026-04-22 19:39 | 53.61946 | 10.65202 | 9366 ft | 273 kts | 322° |
| 2026-04-22 19:39 | 53.63389 | 10.63164 | 8810 ft | 269 kts | 322° |
| 2026-04-22 19:39 | 53.64818 | 10.61143 | 8151 ft | 267 kts | 322° |
| 2026-04-22 19:39 | 53.66220 | 10.59159 | 7654 ft | 266 kts | 322° |
| 2026-04-22 19:40 | 53.67630 | 10.57156 | 7301 ft | 264 kts | 322° |
| 2026-04-22 19:40 | 53.69028 | 10.55167 | 6921 ft | 262 kts | 322° |
| 2026-04-22 19:40 | 53.70417 | 10.53193 | 6534 ft | 260 kts | 322° |
| 2026-04-22 19:40 | 53.71773 | 10.51265 | 6279 ft | 245 kts | 322° |
| 2026-04-22 19:41 | 53.73024 | 10.49479 | 6021 ft | 229 kts | 322° |
| 2026-04-22 19:41 | 53.74224 | 10.47764 | 5563 ft | 225 kts | 321° |
| 2026-04-22 19:41 | 53.75416 | 10.46061 | 5233 ft | 223 kts | 321° |
| 2026-04-22 19:41 | 53.76594 | 10.44378 | 5000 ft | 221 kts | 321° |
| 2026-04-22 19:42 | 53.77722 | 10.42605 | 4985 ft | 224 kts | 307° |
| 2026-04-22 19:42 | 53.78274 | 10.40154 | 4875 ft | 228 kts | 277° |
| 2026-04-22 19:42 | 53.78185 | 10.37465 | 4503 ft | 230 kts | 266° |
| 2026-04-22 19:42 | 53.77959 | 10.34783 | 4159 ft | 230 kts | 264° |
| 2026-04-22 19:43 | 53.77483 | 10.29486 | 3526 ft | 226 kts | 262° |
| 2026-04-22 19:43 | 53.76884 | 10.27042 | 3181 ft | 229 kts | 236° |
| 2026-04-22 19:43 | 53.75877 | 10.24957 | 3010 ft | 228 kts | 233° |
| 2026-04-22 19:44 | 53.74867 | 10.22913 | 3003 ft | 221 kts | 233° |
| 2026-04-22 19:44 | 53.73919 | 10.20984 | 3003 ft | 205 kts | 234° |
| 2026-04-22 19:44 | 53.73041 | 10.19191 | 2971 ft | 191 kts | 234° |
| 2026-04-22 19:44 | 53.72208 | 10.17487 | 2748 ft | 186 kts | 234° |
| 2026-04-22 19:45 | 53.71394 | 10.15825 | 2496 ft | 182 kts | 235° |
| 2026-04-22 19:45 | 53.70607 | 10.14218 | 2265 ft | 179 kts | 234° |
| 2026-04-22 19:45 | 53.69822 | 10.12618 | 2020 ft | 176 kts | 235° |
| 2026-04-22 19:45 | 53.69044 | 10.11033 | 1781 ft | 174 kts | 235° |
| 2026-04-22 19:46 | 53.68310 | 10.09543 | 1556 ft | 157 kts | 236° |
| 2026-04-22 19:46 | 53.67643 | 10.08189 | 1334 ft | 145 kts | 236° |
| 2026-04-22 19:46 | 53.67009 | 10.06899 | 1148 ft | 141 kts | 237° |
| 2026-04-22 19:46 | 53.66387 | 10.05632 | 980 ft | 139 kts | 236° |
| 2026-04-22 19:47 | 53.65780 | 10.04390 | 800 ft | 136 kts | 237° |
| 2026-04-22 19:47 | 53.65180 | 10.03161 | 599 ft | 136 kts | 235° |
| 2026-04-22 19:47 | 53.64582 | 10.01936 | 388 ft | 136 kts | 233° |
| 2026-04-22 19:47 | 53.63983 | 10.00722 | 216 ft | 133 kts | 233° |
| 2026-04-22 19:48 | 53.63391 | 9.99542 | 54 ft | 126 kts | 231° |
| 2026-04-22 19:48 | 53.62974 | 9.98703 | 51 ft | 51 kts | 230° |
| 2026-04-22 19:48 | 53.62787 | 9.98478 | 53 ft | 23 kts | 193° |
| 2026-04-22 19:48 | 53.62740 | 9.98469 | 52 ft | 0 kts | 184° |
| 2026-04-22 19:49 | 53.62732 | 9.98469 | 52 ft | 3 kts | 180° |
| 2026-04-22 19:49 | 53.62697 | 9.98501 | 51 ft | 9 kts | 123° |
| 2026-04-22 19:49 | 53.62720 | 9.98620 | 50 ft | 13 kts | 56° |
| 2026-04-22 19:50 | 53.62788 | 9.98756 | 51 ft | 17 kts | 49° |
| 2026-04-22 19:50 | 53.62862 | 9.98906 | 51 ft | 16 kts | 50° |
| 2026-04-22 19:50 | 53.62930 | 9.99039 | 51 ft | 14 kts | 50° |
| 2026-04-22 19:50 | 53.62990 | 9.99160 | 51 ft | 13 kts | 50° |
| 2026-04-22 19:51 | 53.63042 | 9.99270 | 51 ft | 11 kts | 52° |
| 2026-04-22 19:51 | 53.63077 | 9.99353 | 51 ft | 2 kts | 55° |
| 2026-04-22 19:51 | 53.63089 | 9.99381 | 51 ft | 8 kts | 55° |
| 2026-04-22 19:51 | 53.63151 | 9.99528 | 51 ft | 14 kts | 52° |
| 2026-04-22 19:52 | 53.63188 | 9.99608 | 51 ft | 8 kts | 51° |
| 2026-04-22 19:52 | 53.63206 | 9.99646 | 51 ft | 0 kts | 51° |
| 2026-04-22 19:53 | 53.63217 | 9.99668 | 51 ft | 10 kts | 51° |
| 2026-04-22 19:53 | 53.63276 | 9.99768 | 50 ft | 12 kts | 44° |
| 2026-04-22 19:54 | 53.63333 | 9.99866 | 51 ft | 11 kts | 52° |
| 2026-04-22 19:54 | 53.63403 | 10.00014 | 51 ft | 21 kts | 51° |
| 2026-04-22 19:54 | 53.63400 | 10.00180 | 51 ft | 13 kts | 140° |
| 2026-04-22 19:54 | 53.63336 | 10.00203 | 48 ft | 9 kts | 176° |
| 2026-04-22 19:55 | 53.63291 | 10.00249 | 51 ft | 7 kts | 125° |
| 2026-04-22 19:55 | 53.63279 | 10.00325 | 51 ft | 6 kts | 89° |
| 2026-04-22 19:55 | 53.63281 | 10.00360 | 51 ft | 0 kts | 85° |